createdAt,value
2024-05-09T00:00:46.642Z,11.60
2024-05-09T00:03:14.270Z,12.13
2024-05-09T00:05:43.002Z,11.68
2024-05-09T00:08:11.504Z,11.65
2024-05-09T00:10:40.716Z,11.18
2024-05-09T00:13:10.768Z,10.80
2024-05-09T00:15:39.107Z,10.73
2024-05-09T00:18:07.618Z,10.73
2024-05-09T00:20:39.703Z,11.80
2024-05-09T00:23:13.623Z,12.20
2024-05-09T00:25:44.804Z,12.60
2024-05-09T00:28:12.900Z,11.48
2024-05-09T00:30:41.140Z,11.13
2024-05-09T00:33:10.246Z,11.70
2024-05-09T00:35:39.190Z,11.77
2024-05-09T00:38:06.925Z,12.07
2024-05-09T00:40:43.932Z,11.25
2024-05-09T00:43:14.085Z,11.40
2024-05-09T00:45:43.793Z,12.55
2024-05-09T00:48:17.487Z,12.30
2024-05-09T00:50:47.967Z,12.63
2024-05-09T00:53:18.095Z,12.15
2024-05-09T00:55:47.901Z,13.23
2024-05-09T00:58:18.555Z,12.32
2024-05-09T01:00:46.443Z,12.73
2024-05-09T01:03:14.515Z,12.30
2024-05-09T01:05:43.833Z,12.38
2024-05-09T01:08:12.712Z,12.27
2024-05-09T01:10:43.884Z,12.05
2024-05-09T01:13:12.797Z,12.23
2024-05-09T01:15:40.280Z,11.95
2024-05-09T01:18:12.359Z,12.50
2024-05-09T01:20:44.041Z,12.85
2024-05-09T01:23:15.368Z,12.57
2024-05-09T01:25:45.766Z,12.15
2024-05-09T01:28:14.109Z,12.93
2024-05-09T01:30:41.464Z,12.77
2024-05-09T01:33:10.729Z,12.57
2024-05-09T01:35:41.451Z,12.07
2024-05-09T01:38:12.831Z,12.77
2024-05-09T01:40:40.599Z,13.00
2024-05-09T01:43:09.454Z,12.73
2024-05-09T01:45:39.185Z,12.65
2024-05-09T01:48:08.434Z,12.43
2024-05-09T01:50:40.130Z,13.27
2024-05-09T01:53:15.317Z,13.35
2024-05-09T01:55:44.043Z,13.77
2024-05-09T01:58:11.555Z,12.57
2024-05-09T02:00:42.414Z,13.35
2024-05-09T02:03:15.814Z,13.23
2024-05-09T02:05:47.390Z,12.32
2024-05-09T02:08:19.038Z,12.75
2024-05-09T02:10:49.241Z,12.95
2024-05-09T02:13:17.018Z,13.48
2024-05-09T02:15:44.707Z,12.48
2024-05-09T02:18:12.877Z,13.43
2024-05-09T02:20:42.178Z,12.75
2024-05-09T02:23:10.502Z,12.63
2024-05-09T02:25:38.121Z,13.25
2024-05-09T02:28:06.287Z,13.43
2024-05-09T02:30:39.700Z,12.95
2024-05-09T02:33:12.104Z,12.77
2024-05-09T02:35:42.579Z,12.63
2024-05-09T02:38:10.682Z,13.52
2024-05-09T02:40:39.617Z,12.73
2024-05-09T02:43:10.793Z,12.45
2024-05-09T02:45:40.038Z,12.82
2024-05-09T02:48:12.671Z,12.85
2024-05-09T02:50:41.419Z,13.25
2024-05-09T02:53:09.758Z,12.30
2024-05-09T02:55:40.056Z,13.55
2024-05-09T02:58:08.026Z,12.40
2024-05-09T03:00:39.799Z,12.85
2024-05-09T03:03:13.362Z,12.75
2024-05-09T03:05:46.354Z,13.30
2024-05-09T03:08:14.069Z,12.85
2024-05-09T03:10:41.788Z,13.10
2024-05-09T03:13:15.442Z,12.77
2024-05-09T03:15:44.776Z,13.43
2024-05-09T03:18:13.342Z,13.05
2024-05-09T03:20:41.165Z,12.98
2024-05-09T03:23:09.863Z,12.90
2024-05-09T03:25:38.949Z,13.20
2024-05-09T03:28:06.854Z,13.95
2024-05-09T03:30:40.683Z,13.07
2024-05-09T03:33:19.159Z,14.48
2024-05-09T03:35:49.222Z,12.75
2024-05-09T03:38:17.149Z,12.57
2024-05-09T03:40:50.310Z,13.18
2024-05-09T03:43:19.883Z,12.10
2024-05-09T03:45:50.289Z,11.73
2024-05-09T03:48:17.800Z,12.40
2024-05-09T03:50:45.501Z,12.40
2024-05-09T03:53:14.518Z,12.35
2024-05-09T03:55:42.093Z,12.02
2024-05-09T03:58:09.519Z,12.57
2024-05-09T04:00:39.422Z,13.02
2024-05-09T04:03:10.800Z,12.80
2024-05-09T04:05:45.813Z,12.77
2024-05-09T04:08:15.646Z,13.00
2024-05-09T04:10:43.431Z,11.90
2024-05-09T04:13:11.102Z,12.23
2024-05-09T04:15:39.134Z,12.63
2024-05-09T04:18:06.787Z,12.10
2024-05-09T04:20:38.869Z,11.90
2024-05-09T04:23:12.424Z,12.45
2024-05-09T04:25:45.453Z,11.65
2024-05-09T04:30:41.948Z,12.68
2024-05-09T04:33:12.398Z,12.50
2024-05-09T04:35:45.141Z,12.60
2024-05-09T04:38:14.781Z,12.57
2024-05-09T04:40:42.925Z,12.30
2024-05-09T04:43:19.560Z,13.05
2024-05-09T04:45:47.652Z,13.13
2024-05-09T04:48:16.533Z,12.70
2024-05-09T04:50:44.418Z,12.70
2024-05-09T04:53:16.529Z,13.35
2024-05-09T04:55:44.481Z,13.40
2024-05-09T04:58:11.994Z,13.60
2024-05-09T05:00:40.675Z,12.48
2024-05-09T05:03:14.005Z,13.35
2024-05-09T05:05:45.323Z,13.52
2024-05-09T05:08:15.314Z,13.80
2024-05-09T05:10:44.052Z,13.43
2024-05-09T05:13:24.914Z,13.10
2024-05-09T05:15:57.522Z,13.63
2024-05-09T05:18:28.290Z,13.85
2024-05-09T05:20:56.828Z,15.07
2024-05-09T05:23:24.857Z,13.48
2024-05-09T05:25:55.188Z,14.00
2024-05-09T05:28:26.031Z,13.70
2024-05-09T05:30:53.337Z,13.40
2024-05-09T05:33:22.557Z,12.82
2024-05-09T05:35:50.682Z,13.07
2024-05-09T05:38:18.570Z,12.13
2024-05-09T05:40:49.471Z,13.50
2024-05-09T05:43:18.889Z,12.15
2024-05-09T05:45:46.917Z,13.10
2024-05-09T05:48:18.127Z,11.20
2024-05-09T05:50:46.084Z,11.98
2024-05-09T05:53:14.078Z,13.20
2024-05-09T05:55:42.047Z,12.02
2024-05-09T05:58:14.711Z,12.27
2024-05-09T06:00:42.922Z,12.95
2024-05-09T06:03:21.351Z,12.13
2024-05-09T06:05:48.795Z,12.68
2024-05-09T06:08:18.344Z,13.02
2024-05-09T06:10:45.809Z,13.43
2024-05-09T06:13:14.411Z,13.15
2024-05-09T06:15:43.671Z,12.57
2024-05-09T06:18:12.542Z,12.68
2024-05-09T06:20:43.138Z,13.50
2024-05-09T06:23:12.404Z,13.30
2024-05-09T06:25:44.031Z,13.85
2024-05-09T06:28:11.693Z,13.80
2024-05-09T06:30:42.244Z,14.45
2024-05-09T06:33:14.362Z,14.18
2024-05-09T06:35:44.625Z,14.52
2024-05-09T06:38:13.376Z,14.75
2024-05-09T06:40:43.161Z,14.35
2024-05-09T06:43:17.560Z,14.68
2024-05-09T06:45:49.014Z,13.93
2024-05-09T06:48:21.452Z,13.98
2024-05-09T06:50:50.371Z,13.82
2024-05-09T06:53:22.602Z,14.50
2024-05-09T06:55:50.136Z,14.47
2024-05-09T06:58:17.661Z,14.48
2024-05-09T07:00:45.087Z,14.18
2024-05-09T07:03:17.002Z,13.65
2024-05-09T07:05:47.329Z,13.63
2024-05-09T07:08:16.405Z,12.43
2024-05-09T07:10:44.503Z,12.70
2024-05-09T07:13:14.184Z,13.00
2024-05-09T07:15:42.266Z,12.90
2024-05-09T07:18:17.730Z,12.98
2024-05-09T07:20:47.640Z,12.15
2024-05-09T07:23:16.155Z,12.73
2024-05-09T07:25:44.071Z,13.13
2024-05-09T07:28:14.793Z,12.20
2024-05-09T07:30:42.922Z,10.88
2024-05-09T07:33:20.198Z,11.13
2024-05-09T07:35:49.195Z,11.63
2024-05-09T07:38:16.619Z,12.90
2024-05-09T07:40:43.967Z,12.45
2024-05-09T07:43:17.007Z,11.70
2024-05-09T07:45:52.271Z,11.02
2024-05-09T07:52:38.368Z,11.95
2024-05-09T07:53:49.355Z,11.00
2024-05-09T07:56:22.405Z,10.95
2024-05-09T07:58:53.360Z,11.45
2024-05-09T08:01:21.409Z,10.15
2024-05-09T08:03:50.148Z,11.48
2024-05-09T08:06:17.871Z,11.48
2024-05-09T08:08:49.828Z,11.48
2024-05-09T08:11:17.290Z,10.85
2024-05-09T08:13:44.574Z,10.82
2024-05-09T08:16:14.571Z,11.05
2024-05-09T08:18:42.320Z,10.52
2024-05-09T08:21:09.794Z,9.77
2024-05-09T08:23:37.045Z,10.27
2024-05-09T08:26:04.574Z,10.10
2024-05-09T08:28:31.833Z,10.18
2024-05-09T08:31:00.033Z,10.30
2024-05-09T08:33:29.034Z,10.07
2024-05-09T08:35:58.193Z,8.95
2024-05-09T08:38:25.498Z,9.75
2024-05-09T08:40:53.009Z,9.25
2024-05-09T08:43:20.634Z,9.40
2024-05-09T08:45:50.130Z,8.63
2024-05-09T08:48:19.760Z,8.80
2024-05-09T08:50:52.128Z,8.98
2024-05-09T08:53:19.884Z,8.45
2024-05-09T08:55:51.030Z,8.90
2024-05-09T08:58:21.687Z,8.68
2024-05-09T09:00:49.750Z,8.75
2024-05-09T09:03:26.878Z,9.10
2024-05-09T09:06:05.515Z,9.13
2024-05-09T09:08:33.038Z,9.25
2024-05-09T09:11:00.666Z,8.88
2024-05-09T09:13:28.214Z,8.95
2024-05-09T09:15:58.680Z,9.52
2024-05-09T09:18:27.952Z,8.77
2024-05-09T09:20:56.064Z,9.27
2024-05-09T09:23:23.338Z,8.50
2024-05-09T09:25:50.952Z,10.27
2024-05-09T09:28:18.453Z,9.55
2024-05-09T09:30:46.055Z,9.30
2024-05-09T09:33:13.713Z,9.20
2024-05-09T09:35:42.537Z,9.20
2024-05-09T09:38:10.712Z,9.65
2024-05-09T09:40:49.611Z,9.18
2024-05-09T09:43:22.522Z,9.55
2024-05-09T09:45:53.421Z,9.05
2024-05-09T09:48:23.087Z,9.93
2024-05-09T09:50:52.577Z,8.88
2024-05-09T09:53:20.524Z,9.63
2024-05-09T09:55:48.524Z,10.13
2024-05-09T09:58:18.051Z,9.50
2024-05-09T10:00:46.125Z,9.40
2024-05-09T10:03:13.894Z,9.05
2024-05-09T10:05:45.085Z,9.25
2024-05-09T10:08:17.815Z,9.07
2024-05-09T10:10:48.771Z,9.98
2024-05-09T10:13:16.530Z,9.75
2024-05-09T10:15:51.845Z,9.45
2024-05-09T10:18:27.103Z,9.73
2024-05-09T10:20:56.711Z,9.52
2024-05-09T10:23:28.805Z,9.57
2024-05-09T10:26:05.731Z,9.90
2024-05-09T10:28:36.988Z,9.27
2024-05-09T10:31:13.321Z,9.27
2024-05-09T10:33:52.771Z,9.43
2024-05-09T10:36:28.970Z,9.23
2024-05-09T10:38:56.506Z,9.82
2024-05-09T10:41:23.983Z,9.55
2024-05-09T10:43:52.152Z,8.50
2024-05-09T10:46:20.139Z,9.68
2024-05-09T10:48:50.686Z,10.05
2024-05-09T10:51:21.970Z,9.82
2024-05-09T10:53:49.272Z,9.18
2024-05-09T10:56:17.409Z,9.13
2024-05-09T10:58:44.890Z,9.30
2024-05-09T11:01:13.486Z,9.32
2024-05-09T11:03:42.447Z,9.20
2024-05-09T11:06:11.329Z,10.07
2024-05-09T11:08:39.436Z,10.07
2024-05-09T11:11:08.824Z,9.55
2024-05-09T11:13:39.803Z,9.60
2024-05-09T11:16:21.448Z,9.10
2024-05-09T11:18:58.072Z,9.80
2024-05-09T11:21:26.130Z,9.90
2024-05-09T11:23:53.707Z,9.57
2024-05-09T11:26:22.340Z,9.23
2024-05-09T11:28:50.819Z,9.25
2024-05-09T11:31:18.821Z,9.23
2024-05-09T11:33:47.065Z,8.70
2024-05-09T11:36:15.245Z,9.45
2024-05-09T11:38:43.280Z,9.43
2024-05-09T11:41:18.479Z,9.57
2024-05-09T11:43:45.967Z,9.85
2024-05-09T11:46:13.751Z,9.57
2024-05-09T11:48:41.491Z,9.55
2024-05-09T11:51:08.963Z,10.30
2024-05-09T11:53:36.212Z,10.55
2024-05-09T11:56:04.012Z,9.10
2024-05-09T11:58:36.820Z,9.27
2024-05-09T12:01:04.510Z,9.15
2024-05-09T12:03:32.117Z,9.38
2024-05-09T12:05:59.785Z,9.48
2024-05-09T12:08:27.527Z,8.93
2024-05-09T12:10:55.199Z,8.70
2024-05-09T12:13:22.657Z,8.10
2024-05-09T12:15:50.084Z,8.38
2024-05-09T12:18:17.493Z,9.10
2024-05-09T12:20:44.844Z,8.25
2024-05-09T12:23:12.213Z,8.57
2024-05-09T12:25:40.096Z,8.73
2024-05-09T12:28:08.907Z,9.80
2024-05-09T12:30:40.773Z,7.35
2024-05-09T12:33:13.744Z,7.72
2024-05-09T12:35:44.321Z,7.47
2024-05-09T12:40:43.488Z,7.70
2024-05-09T12:43:11.668Z,7.13
2024-05-09T12:45:40.430Z,8.27
2024-05-09T12:48:12.131Z,6.53
2024-05-09T12:50:41.111Z,7.32
2024-05-09T12:53:08.848Z,6.63
2024-05-09T12:55:45.093Z,6.43
2024-05-09T12:58:24.197Z,7.07
2024-05-09T13:00:52.835Z,6.65
2024-05-09T13:03:20.678Z,7.45
2024-05-09T13:05:50.287Z,6.28
2024-05-09T13:08:17.843Z,6.25
2024-05-09T13:10:45.234Z,5.88
2024-05-09T13:13:12.944Z,5.93
2024-05-09T13:15:40.647Z,6.05
2024-05-09T13:18:09.792Z,6.55
2024-05-09T13:20:37.435Z,6.32
2024-05-09T13:23:07.599Z,6.45
2024-05-09T13:25:37.939Z,6.30
2024-05-09T13:28:07.891Z,7.47
2024-05-09T13:30:40.415Z,7.20
2024-05-09T13:33:11.916Z,7.05
2024-05-09T13:35:48.806Z,7.10
2024-05-09T13:38:20.621Z,6.97
2024-05-09T13:40:49.396Z,7.32
2024-05-09T13:43:18.079Z,6.88
2024-05-09T13:45:46.020Z,6.93
2024-05-09T13:48:13.611Z,6.20
2024-05-09T13:50:41.575Z,6.30
2024-05-09T13:53:09.294Z,6.85
2024-05-09T13:55:40.756Z,7.30
2024-05-09T13:58:09.595Z,6.85
2024-05-09T14:00:46.233Z,7.00
2024-05-09T14:03:19.743Z,7.28
2024-05-09T14:05:50.849Z,7.25
2024-05-09T14:08:20.274Z,6.70
2024-05-09T14:10:49.736Z,6.78
2024-05-09T14:13:17.502Z,7.30
2024-05-09T14:15:46.931Z,6.93
2024-05-09T14:18:15.064Z,7.05
2024-05-09T14:20:45.014Z,7.30
2024-05-09T14:23:12.287Z,6.85
2024-05-09T14:25:42.735Z,7.45
2024-05-09T14:28:12.636Z,7.50
2024-05-09T14:30:41.452Z,7.88
2024-05-09T14:33:11.778Z,7.60
2024-05-09T14:35:39.521Z,7.65
2024-05-09T14:38:10.740Z,7.72
2024-05-09T14:40:42.647Z,7.47
2024-05-09T14:43:13.655Z,7.47
2024-05-09T14:45:42.442Z,7.75
2024-05-09T14:48:11.487Z,7.10
2024-05-09T14:50:40.487Z,8.00
2024-05-09T14:53:10.851Z,8.63
2024-05-09T14:55:41.046Z,8.85
2024-05-09T14:58:11.418Z,9.63
2024-05-09T15:00:49.839Z,9.50
2024-05-09T15:03:22.198Z,9.57
2024-05-09T15:05:51.357Z,9.75
2024-05-09T15:08:19.915Z,10.35
2024-05-09T15:10:49.952Z,11.20
2024-05-09T15:13:24.232Z,10.65
2024-05-09T15:15:54.932Z,10.20
2024-05-09T15:18:23.830Z,10.07
2024-05-09T15:20:51.551Z,10.68
2024-05-09T15:23:19.401Z,9.65
2024-05-09T15:25:46.943Z,11.07
2024-05-09T15:28:14.644Z,10.40
2024-05-09T15:30:45.228Z,10.75
2024-05-09T15:33:14.319Z,11.23
2024-05-09T15:35:42.011Z,11.57
2024-05-09T15:38:10.142Z,10.93
2024-05-09T15:40:40.086Z,10.00
2024-05-09T15:43:10.788Z,11.60
2024-05-09T15:45:40.930Z,11.25
2024-05-09T15:48:11.535Z,10.65
2024-05-09T15:50:41.732Z,11.18
2024-05-09T15:53:12.577Z,10.57
2024-05-09T15:55:41.645Z,12.05
2024-05-09T15:58:10.395Z,11.57
2024-05-09T16:00:42.205Z,11.45
2024-05-09T16:03:13.755Z,11.13
2024-05-09T16:05:46.719Z,11.02
2024-05-09T16:08:16.722Z,11.57
2024-05-09T16:10:47.044Z,11.05
2024-05-09T16:13:17.552Z,10.63
2024-05-09T16:15:46.789Z,11.05
2024-05-09T16:18:14.938Z,11.02
2024-05-09T16:20:44.746Z,11.40
2024-05-09T16:23:13.903Z,11.15
2024-05-09T16:25:46.384Z,11.35
2024-05-09T16:28:14.334Z,10.65
2024-05-09T16:30:42.411Z,11.20
2024-05-09T16:33:13.813Z,10.75
2024-05-09T16:35:41.722Z,10.05
2024-05-09T16:38:09.887Z,10.63
2024-05-09T16:40:40.445Z,9.85
2024-05-09T16:43:10.870Z,10.40
2024-05-09T16:45:41.789Z,10.20
2024-05-09T16:48:10.258Z,9.60
2024-05-09T16:50:38.549Z,9.20
2024-05-09T16:53:07.181Z,9.65
2024-05-09T16:55:36.321Z,10.65
2024-05-09T16:58:07.452Z,9.52
2024-05-09T17:00:41.144Z,8.80
2024-05-09T17:03:15.208Z,8.60
2024-05-09T17:05:48.888Z,8.45
2024-05-09T17:08:20.446Z,8.57
2024-05-09T17:10:49.934Z,7.83
2024-05-09T17:13:19.351Z,7.85
2024-05-09T17:15:50.364Z,8.05
2024-05-09T17:18:18.786Z,8.52
2024-05-09T17:20:46.897Z,8.93
2024-05-09T17:23:15.912Z,8.90
2024-05-09T17:25:44.216Z,8.32
2024-05-09T17:28:12.839Z,8.57
2024-05-09T17:30:42.113Z,8.65
2024-05-09T17:33:11.991Z,8.20
2024-05-09T17:35:40.870Z,8.98
2024-05-09T17:38:09.234Z,8.32
2024-05-09T17:40:38.453Z,8.55
2024-05-09T17:43:11.136Z,8.77
2024-05-09T17:45:41.071Z,8.52
2024-05-09T17:48:11.385Z,7.47
2024-05-09T17:50:41.680Z,7.30
2024-05-09T17:53:10.971Z,7.65
2024-05-09T17:55:40.532Z,8.10
2024-05-09T17:58:08.689Z,7.82
2024-05-09T18:00:39.903Z,7.20
2024-05-09T18:03:14.020Z,7.22
2024-05-09T18:05:43.315Z,7.80
2024-05-09T18:08:11.814Z,7.75
2024-05-09T18:10:41.209Z,7.07
2024-05-09T18:13:10.266Z,7.95
2024-05-09T18:15:38.669Z,7.95
2024-05-09T18:18:07.570Z,7.00
2024-05-09T18:20:42.760Z,7.38
2024-05-09T18:23:18.504Z,7.13
2024-05-09T18:25:47.885Z,6.95
2024-05-09T18:28:16.987Z,7.05
2024-05-09T18:30:44.945Z,7.50
2024-05-09T18:33:13.501Z,7.05
2024-05-09T18:35:44.900Z,7.63
2024-05-09T18:38:12.845Z,7.20
2024-05-09T18:40:42.069Z,7.32
2024-05-09T18:43:11.232Z,7.28
2024-05-09T18:45:39.048Z,7.35
2024-05-09T18:48:08.631Z,7.30
2024-05-09T18:50:39.975Z,7.88
2024-05-09T18:53:11.798Z,7.28
2024-05-09T18:55:44.201Z,8.00
2024-05-09T18:58:11.745Z,7.43
2024-05-09T19:00:41.741Z,8.25
2024-05-09T19:03:14.060Z,8.23
2024-05-09T19:05:44.680Z,8.35
2024-05-09T19:08:14.507Z,8.70
2024-05-09T19:10:41.972Z,8.70
2024-05-09T19:13:12.432Z,8.75
2024-05-09T19:15:42.502Z,8.95
2024-05-09T19:18:12.486Z,8.30
2024-05-09T19:20:40.444Z,9.35
2024-05-09T19:23:07.982Z,8.75
2024-05-09T19:25:36.210Z,9.40
2024-05-09T19:28:05.426Z,9.15
2024-05-09T19:30:38.976Z,9.18
2024-05-09T19:33:12.087Z,9.57
2024-05-09T19:35:40.517Z,9.15
2024-05-09T19:38:08.163Z,9.38
2024-05-09T19:40:36.028Z,8.95
2024-05-09T19:43:05.670Z,8.77
2024-05-09T19:45:35.198Z,9.50
2024-05-09T19:48:04.867Z,9.73
2024-05-09T19:50:40.862Z,9.75
2024-05-09T19:53:14.697Z,9.55
2024-05-09T19:55:42.877Z,9.88
2024-05-09T19:58:11.603Z,9.85
2024-05-09T20:00:42.133Z,9.50
2024-05-09T20:03:15.659Z,9.60
2024-05-09T20:05:46.751Z,9.68
2024-05-09T20:08:15.577Z,10.52
2024-05-09T20:10:43.380Z,9.93
2024-05-09T20:13:11.028Z,10.77
2024-05-09T20:15:38.946Z,10.90
2024-05-09T20:18:07.229Z,11.85
2024-05-09T20:20:39.728Z,9.98
2024-05-09T20:23:13.984Z,9.77
2024-05-09T20:25:42.603Z,10.43
2024-05-09T20:28:10.854Z,10.82
2024-05-09T20:30:39.075Z,10.88
2024-05-09T20:33:08.224Z,11.90
2024-05-09T20:35:36.909Z,12.18
2024-05-09T20:38:04.916Z,11.70
2024-05-09T20:40:36.425Z,12.30
2024-05-09T20:43:08.410Z,12.82
2024-05-09T20:45:36.380Z,11.15
2024-05-09T20:48:04.302Z,12.50
2024-05-09T20:50:38.103Z,11.68
2024-05-09T20:53:10.746Z,11.25
2024-05-09T20:55:38.800Z,11.50
2024-05-09T20:58:06.098Z,12.02
2024-05-09T21:00:39.992Z,12.05
2024-05-09T21:03:11.513Z,10.90
2024-05-09T21:05:39.729Z,11.80
2024-05-09T21:08:07.699Z,11.40
2024-05-09T21:10:37.011Z,11.77
2024-05-09T21:13:06.031Z,12.38
2024-05-09T21:15:34.482Z,11.50
2024-05-09T21:18:02.153Z,12.57
2024-05-09T21:20:32.779Z,12.65
2024-05-09T21:23:01.953Z,11.73
2024-05-09T21:25:29.902Z,12.55
2024-05-09T21:28:01.067Z,12.32
2024-05-09T21:30:38.417Z,12.23
2024-05-09T21:33:11.649Z,11.63
2024-05-09T21:35:41.621Z,11.63
2024-05-09T21:38:09.145Z,12.07
2024-05-09T21:40:38.001Z,13.23
2024-05-09T21:43:07.937Z,13.25
2024-05-09T21:45:36.816Z,11.98
2024-05-09T21:48:06.026Z,11.93
2024-05-09T21:50:39.847Z,13.13
2024-05-09T21:53:11.228Z,12.52
2024-05-09T21:55:38.775Z,12.38
2024-05-09T21:58:06.197Z,12.57
2024-05-09T22:00:38.079Z,13.02
2024-05-09T22:03:10.959Z,12.43
2024-05-09T22:05:42.203Z,13.60
2024-05-09T22:08:10.854Z,12.60
2024-05-09T22:10:38.579Z,12.50
2024-05-09T22:13:06.971Z,13.25
2024-05-09T22:15:37.483Z,12.63
2024-05-09T22:18:08.319Z,12.38
2024-05-09T22:20:39.205Z,12.38
2024-05-09T22:23:08.629Z,12.52
2024-05-09T22:25:38.524Z,12.43
2024-05-09T22:28:07.152Z,12.35
2024-05-09T22:30:38.271Z,12.68
2024-05-09T22:33:10.149Z,13.07
2024-05-09T22:35:39.543Z,12.75
2024-05-09T22:38:06.973Z,13.52
2024-05-09T22:40:44.919Z,12.93
2024-05-09T22:43:24.004Z,13.10
2024-05-09T22:45:54.982Z,13.40
2024-05-09T22:48:24.593Z,14.23
2024-05-09T22:50:53.343Z,13.75
2024-05-09T22:53:25.550Z,13.68
2024-05-09T22:55:54.122Z,14.05
2024-05-09T22:58:22.687Z,14.27
2024-05-09T23:00:50.311Z,12.98
2024-05-09T23:03:21.125Z,14.45
2024-05-09T23:05:49.076Z,15.00
2024-05-09T23:08:16.430Z,14.95
2024-05-09T23:10:43.757Z,14.32
2024-05-09T23:13:11.175Z,14.00
2024-05-09T23:15:38.908Z,13.82
2024-05-09T23:18:08.470Z,14.95
2024-05-09T23:20:38.989Z,14.18
2024-05-09T23:23:10.084Z,13.85
2024-05-09T23:25:39.388Z,12.88
2024-05-09T23:28:07.345Z,13.80
2024-05-09T23:30:38.713Z,14.25
2024-05-09T23:33:12.857Z,13.43
2024-05-09T23:38:09.384Z,13.95
2024-05-09T23:40:39.954Z,14.73
2024-05-09T23:43:10.605Z,13.93
2024-05-09T23:45:38.758Z,14.43
2024-05-09T23:48:07.070Z,15.30
2024-05-09T23:50:37.836Z,14.65
2024-05-09T23:53:08.829Z,14.40
2024-05-09T23:55:37.652Z,14.27
2024-05-09T23:58:06.392Z,14.43
